Time;durP1;ratioP1;P1;durP2;ratioP2;P2;SDS_P1;SDS_P2;PMS_P1;PMS_P2;Temp;Humidity;BMP_temperature;BMP_pressure;BME280_temperature;BME280_humidity;BME280_pressure;Samples;Min_cycle;Max_cycle;Signal;HPM_P1;HPM_P2
2023/12/22 00:01:56;;;;;;;2.88;1.60;;;;;;;;;;4978349;28;20036;-68
2023/12/22 00:04:22;;;;;;;2.33;1.40;;;;;;;;;;4973555;28;20067;-67
2023/12/22 00:06:51;;;;;;;2.88;1.40;;;;;;;;;;4969030;28;20031;-67
2023/12/22 00:09:18;;;;;;;1.95;1.30;;;;;;;;;;4953081;28;20149;-68
2023/12/22 00:11:47;;;;;;;1.70;1.58;;;;;;;;;;4967446;28;20054;-68
2023/12/22 00:14:16;;;;;;;1.30;1.30;;;;;;;;;;4973191;28;20479;-68
2023/12/22 00:16:42;;;;;;;1.98;1.65;;;;;;;;;;4981166;28;20038;-68
2023/12/22 00:19:09;;;;;;;2.75;1.63;;;;;;;;;;4967564;28;20368;-68
2023/12/22 00:21:35;;;;;;;2.13;1.70;;;;;;;;;;4965874;28;20042;-67
2023/12/22 00:24:01;;;;;;;3.15;1.63;;;;;;;;;;4973151;28;20030;-68
2023/12/22 00:26:27;;;;;;;2.28;1.58;;;;;;;;;;4992063;28;20030;-68
2023/12/22 00:28:53;;;;;;;3.28;2.50;;;;;;;;;;4967866;28;20485;-68
2023/12/22 00:31:20;;;;;;;3.22;2.00;;;;;;;;;;4965622;28;20031;-69
2023/12/22 00:33:47;;;;;;;5.75;2.72;;;;;;;;;;4961502;28;20275;-70
2023/12/22 00:36:13;;;;;;;2.35;1.90;;;;;;;;;;4971527;28;20027;-68
2023/12/22 00:38:40;;;;;;;2.10;1.90;;;;;;;;;;4970558;28;20034;-67
2023/12/22 00:41:06;;;;;;;4.30;1.90;;;;;;;;;;4967488;28;20038;-69
2023/12/22 00:43:32;;;;;;;4.22;1.95;;;;;;;;;;4968766;28;20042;-68
2023/12/22 00:45:59;;;;;;;2.25;1.38;;;;;;;;;;4967971;28;20035;-68
2023/12/22 00:48:25;;;;;;;1.67;1.58;;;;;;;;;;4981751;28;20030;-72
2023/12/22 00:50:51;;;;;;;1.83;1.70;;;;;;;;;;4968889;28;20035;-68
2023/12/22 00:53:20;;;;;;;2.25;1.60;;;;;;;;;;4967229;28;20034;-67
2023/12/22 00:55:46;;;;;;;2.85;1.38;;;;;;;;;;4961869;28;20058;-67
2023/12/22 00:58:13;;;;;;;2.55;1.83;;;;;;;;;;4966447;28;20051;-67
2023/12/22 01:00:42;;;;;;;2.15;1.73;;;;;;;;;;4977730;28;20058;-67
2023/12/22 01:03:08;;;;;;;3.25;1.50;;;;;;;;;;4963020;28;20521;-68
2023/12/22 01:05:34;;;;;;;9.55;2.00;;;;;;;;;;4962640;28;20038;-67
2023/12/22 01:08:00;;;;;;;2.75;2.00;;;;;;;;;;4964516;28;20037;-67
2023/12/22 01:10:26;;;;;;;3.35;1.63;;;;;;;;;;4960839;28;20035;-68
2023/12/22 01:12:53;;;;;;;4.82;1.63;;;;;;;;;;4963198;28;20039;-68
2023/12/22 01:15:19;;;;;;;3.78;1.58;;;;;;;;;;4971049;28;20442;-69
2023/12/22 01:17:45;;;;;;;3.72;1.55;;;;;;;;;;4961646;28;20035;-68
2023/12/22 01:20:12;;;;;;;1.63;1.52;;;;;;;;;;4962492;28;20041;-67
2023/12/22 01:22:38;;;;;;;3.88;1.90;;;;;;;;;;4989055;28;20117;-68
2023/12/22 01:25:05;;;;;;;2.75;1.60;;;;;;;;;;4973503;28;20257;-70
2023/12/22 01:27:31;;;;;;;4.38;1.90;;;;;;;;;;4964213;28;20030;-68
2023/12/22 01:29:58;;;;;;;1.85;1.60;;;;;;;;;;4972974;28;20030;-68
2023/12/22 01:32:24;;;;;;;1.48;1.38;;;;;;;;;;4958185;28;20153;-68
2023/12/22 01:34:50;;;;;;;2.40;2.10;;;;;;;;;;4985947;28;20292;-67
2023/12/22 01:37:16;;;;;;;3.85;1.48;;;;;;;;;;4967196;28;20100;-68
2023/12/22 01:39:43;;;;;;;2.95;1.38;;;;;;;;;;4964483;28;20038;-67
2023/12/22 01:42:15;;;;;;;1.98;1.35;;;;;;;;;;4963496;28;20038;-67
2023/12/22 01:44:41;;;;;;;4.35;1.70;;;;;;;;;;4983490;28;20531;-72
2023/12/22 01:47:07;;;;;;;2.15;1.80;;;;;;;;;;4961436;28;20038;-68
2023/12/22 01:49:33;;;;;;;3.97;1.98;;;;;;;;;;4961622;28;20037;-68
2023/12/22 01:52:00;;;;;;;3.72;1.63;;;;;;;;;;4961202;28;20028;-68
2023/12/22 01:54:26;;;;;;;7.20;2.20;;;;;;;;;;4954818;28;20057;-69
2023/12/22 01:56:52;;;;;;;2.47;1.98;;;;;;;;;;4957934;28;20043;-67
2023/12/22 01:59:19;;;;;;;7.03;2.53;;;;;;;;;;4950341;28;20051;-72
2023/12/22 02:01:45;;;;;;;4.28;1.65;;;;;;;;;;4945800;28;20032;-69
2023/12/22 02:04:12;;;;;;;5.53;2.90;;;;;;;;;;5032639;28;20037;-68
2023/12/22 02:06:38;;;;;;;5.28;1.92;;;;;;;;;;5043724;28;20025;-68
2023/12/22 02:09:04;;;;;;;9.38;2.70;;;;;;;;;;5040396;28;20393;-68
2023/12/22 02:11:31;;;;;;;4.32;2.10;;;;;;;;;;5038910;28;20031;-67
2023/12/22 02:13:57;;;;;;;10.57;2.50;;;;;;;;;;5038248;28;20032;-69
2023/12/22 02:16:26;;;;;;;4.35;2.05;;;;;;;;;;5035197;28;20061;-67
2023/12/22 02:18:55;;;;;;;5.57;2.28;;;;;;;;;;5035878;28;20029;-69
2023/12/22 02:21:22;;;;;;;3.25;1.90;;;;;;;;;;4994697;28;20077;-68
2023/12/22 02:23:48;;;;;;;9.13;2.42;;;;;;;;;;5042184;28;20048;-68
2023/12/22 02:26:25;;;;;;;5.88;2.45;;;;;;;;;;5011795;28;20071;-68
2023/12/22 02:28:52;;;;;;;4.35;3.15;;;;;;;;;;5035149;28;20043;-68
2023/12/22 02:31:20;;;;;;;8.15;3.13;;;;;;;;;;5038642;28;20036;-68
2023/12/22 02:33:48;;;;;;;6.10;2.00;;;;;;;;;;5039861;28;20033;-68
2023/12/22 02:36:16;;;;;;;6.60;2.28;;;;;;;;;;5039926;28;20033;-69
2023/12/22 02:38:47;;;;;;;8.05;2.67;;;;;;;;;;5028671;28;20032;-70
2023/12/22 02:41:14;;;;;;;7.45;2.65;;;;;;;;;;5040763;28;20485;-72
2023/12/22 02:43:40;;;;;;;10.73;2.22;;;;;;;;;;5024061;28;20025;-66
2023/12/22 02:46:13;;;;;;;6.60;2.75;;;;;;;;;;5034419;28;20103;-67
2023/12/22 02:48:39;;;;;;;3.85;2.35;;;;;;;;;;5039176;28;20025;-70
2023/12/22 02:51:05;;;;;;;3.03;1.92;;;;;;;;;;5041125;28;20052;-67
2023/12/22 02:53:32;;;;;;;8.25;2.15;;;;;;;;;;5041538;28;20040;-66
2023/12/22 02:55:58;;;;;;;3.00;2.10;;;;;;;;;;5036551;28;20440;-67
2023/12/22 02:58:24;;;;;;;10.10;2.28;;;;;;;;;;4957652;28;20105;-68
2023/12/22 03:00:50;;;;;;;7.85;1.92;;;;;;;;;;4953121;28;20027;-66
2023/12/22 03:03:16;;;;;;;4.05;2.00;;;;;;;;;;4953664;28;20058;-67
2023/12/22 03:05:43;;;;;;;6.10;2.17;;;;;;;;;;4946965;28;20472;-66
2023/12/22 03:08:09;;;;;;;12.10;2.50;;;;;;;;;;4950701;28;20031;-67
2023/12/22 03:10:36;;;;;;;7.68;2.55;;;;;;;;;;4973600;28;20035;-67
2023/12/22 03:13:02;;;;;;;7.68;1.80;;;;;;;;;;4956748;28;20383;-67
2023/12/22 03:15:29;;;;;;;5.75;2.58;;;;;;;;;;4954021;28;20027;-68
2023/12/22 03:17:55;;;;;;;3.58;2.38;;;;;;;;;;4957549;28;20509;-67
2023/12/22 03:20:21;;;;;;;10.80;2.58;;;;;;;;;;4957150;28;20061;-69
2023/12/22 03:22:48;;;;;;;7.95;2.88;;;;;;;;;;4960012;28;20076;-68
2023/12/22 03:25:14;;;;;;;10.60;3.05;;;;;;;;;;4959136;28;20039;-67
2023/12/22 03:27:44;;;;;;;6.88;2.28;;;;;;;;;;4960067;28;20172;-67
2023/12/22 03:30:11;;;;;;;4.80;2.75;;;;;;;;;;4956868;28;20030;-67
2023/12/22 03:32:37;;;;;;;12.40;3.00;;;;;;;;;;4948594;28;20084;-69
2023/12/22 03:35:04;;;;;;;9.00;3.08;;;;;;;;;;4948655;28;20031;-68
2023/12/22 03:37:30;;;;;;;9.27;2.17;;;;;;;;;;4965346;28;20023;-68
2023/12/22 03:39:56;;;;;;;4.53;2.80;;;;;;;;;;4964672;28;20439;-68
2023/12/22 03:42:22;;;;;;;5.38;2.20;;;;;;;;;;4965251;28;20081;-68
2023/12/22 03:44:48;;;;;;;12.95;2.58;;;;;;;;;;4944869;28;20530;-68
2023/12/22 03:47:15;;;;;;;12.80;2.80;;;;;;;;;;4944788;28;20067;-68
2023/12/22 03:49:41;;;;;;;5.57;2.50;;;;;;;;;;4953072;28;20044;-68
2023/12/22 03:52:07;;;;;;;14.45;2.72;;;;;;;;;;4944636;28;20040;-68
2023/12/22 03:54:33;;;;;;;9.18;2.90;;;;;;;;;;4974038;28;20494;-72
2023/12/22 03:57:00;;;;;;;5.25;2.45;;;;;;;;;;4962821;28;20090;-69
2023/12/22 03:59:26;;;;;;;11.30;2.60;;;;;;;;;;4964784;28;20027;-68
2023/12/22 04:01:52;;;;;;;11.40;2.65;;;;;;;;;;4969869;28;20073;-69
2023/12/22 04:04:22;;;;;;;5.22;2.13;;;;;;;;;;4965974;28;20360;-68
2023/12/22 04:06:49;;;;;;;10.30;2.78;;;;;;;;;;4977067;28;20549;-68
2023/12/22 04:09:15;;;;;;;6.75;3.00;;;;;;;;;;4963480;28;20065;-69
2023/12/22 04:11:44;;;;;;;8.07;2.55;;;;;;;;;;4961433;28;20027;-69
2023/12/22 04:14:10;;;;;;;12.90;3.58;;;;;;;;;;4963799;28;20474;-68
2023/12/22 04:16:40;;;;;;;4.43;2.00;;;;;;;;;;4962281;28;20031;-69
2023/12/22 04:19:06;;;;;;;2.95;2.00;;;;;;;;;;4962356;28;20110;-68
2023/12/22 04:21:32;;;;;;;6.07;2.15;;;;;;;;;;4964284;28;20471;-69
2023/12/22 04:23:58;;;;;;;7.45;2.25;;;;;;;;;;4963994;28;20026;-68
2023/12/22 04:26:25;;;;;;;8.23;2.28;;;;;;;;;;4969326;28;20027;-68
2023/12/22 04:28:51;;;;;;;7.03;3.10;;;;;;;;;;4964067;28;20406;-68
2023/12/22 04:31:17;;;;;;;3.53;2.25;;;;;;;;;;4966390;28;20116;-67
2023/12/22 04:33:43;;;;;;;6.65;2.13;;;;;;;;;;4975100;28;20035;-67
2023/12/22 04:36:09;;;;;;;5.88;2.22;;;;;;;;;;4974618;28;20477;-67
2023/12/22 04:38:35;;;;;;;4.47;2.40;;;;;;;;;;4974394;28;20020;-67
2023/12/22 04:41:05;;;;;;;8.07;2.33;;;;;;;;;;4975689;28;20109;-69
2023/12/22 04:43:31;;;;;;;11.57;2.97;;;;;;;;;;4961052;28;20122;-67
2023/12/22 04:45:57;;;;;;;10.05;3.42;;;;;;;;;;4965766;28;20030;-68
2023/12/22 04:48:23;;;;;;;8.00;2.50;;;;;;;;;;4973244;28;20100;-69
2023/12/22 04:50:49;;;;;;;7.05;2.80;;;;;;;;;;4966313;28;20037;-67
2023/12/22 04:53:15;;;;;;;6.88;1.90;;;;;;;;;;4974579;28;20034;-69
2023/12/22 04:55:41;;;;;;;6.70;2.85;;;;;;;;;;4961335;28;20498;-68
2023/12/22 04:58:07;;;;;;;9.07;3.25;;;;;;;;;;4966008;28;20047;-68
2023/12/22 05:00:34;;;;;;;6.32;2.58;;;;;;;;;;4964549;28;20090;-68
2023/12/22 05:03:03;;;;;;;6.85;2.35;;;;;;;;;;4965246;28;20479;-68
2023/12/22 05:05:29;;;;;;;6.68;2.00;;;;;;;;;;4958672;28;20033;-68
2023/12/22 05:07:55;;;;;;;3.38;1.70;;;;;;;;;;4965892;28;20099;-68
2023/12/22 05:10:21;;;;;;;5.45;1.73;;;;;;;;;;4962971;28;20121;-68
2023/12/22 05:12:48;;;;;;;5.53;1.98;;;;;;;;;;4960623;28;20073;-68
2023/12/22 05:15:14;;;;;;;3.03;2.20;;;;;;;;;;4964161;28;20062;-70
2023/12/22 05:17:40;;;;;;;7.57;2.03;;;;;;;;;;4965908;28;20815;-68
2023/12/22 05:20:07;;;;;;;4.95;1.80;;;;;;;;;;4971942;28;20054;-68
2023/12/22 05:22:33;;;;;;;5.03;1.92;;;;;;;;;;4976075;28;20027;-68
2023/12/22 05:24:59;;;;;;;5.85;1.90;;;;;;;;;;4964504;28;20035;-68
2023/12/22 05:27:26;;;;;;;5.32;2.20;;;;;;;;;;4972574;28;20062;-68
2023/12/22 05:29:52;;;;;;;3.97;1.95;;;;;;;;;;4959517;28;20035;-68
2023/12/22 05:32:19;;;;;;;2.58;1.83;;;;;;;;;;4976165;28;20037;-68
2023/12/22 05:34:48;;;;;;;3.92;2.15;;;;;;;;;;4974759;28;20073;-72
2023/12/22 05:37:19;;;;;;;7.03;2.20;;;;;;;;;;4964446;28;20113;-68
2023/12/22 05:39:46;;;;;;;6.45;2.22;;;;;;;;;;4977038;28;20109;-68
2023/12/22 05:42:12;;;;;;;4.07;2.08;;;;;;;;;;4961653;28;20041;-68
2023/12/22 05:44:42;;;;;;;5.78;2.15;;;;;;;;;;4968276;28;20062;-68
2023/12/22 05:47:08;;;;;;;6.43;2.90;;;;;;;;;;4975156;28;20050;-68
2023/12/22 05:49:34;;;;;;;9.65;2.55;;;;;;;;;;4970281;28;20035;-68
2023/12/22 05:52:01;;;;;;;9.23;2.92;;;;;;;;;;4956907;28;20395;-68
2023/12/22 05:54:28;;;;;;;5.88;2.05;;;;;;;;;;4957217;28;20051;-69
2023/12/22 05:56:57;;;;;;;6.28;2.35;;;;;;;;;;4957064;28;20406;-67
2023/12/22 05:59:24;;;;;;;8.38;2.70;;;;;;;;;;4957267;28;20039;-68
2023/12/22 06:01:53;;;;;;;7.55;2.65;;;;;;;;;;4972829;28;20035;-67
2023/12/22 06:04:20;;;;;;;3.55;1.92;;;;;;;;;;4959947;28;20062;-68
2023/12/22 06:06:46;;;;;;;2.67;1.67;;;;;;;;;;4960824;28;20406;-68
2023/12/22 06:09:12;;;;;;;5.40;2.58;;;;;;;;;;4959659;28;20537;-68
2023/12/22 06:11:39;;;;;;;3.53;1.60;;;;;;;;;;4963585;28;20391;-69
2023/12/22 06:14:06;;;;;;;4.80;2.17;;;;;;;;;;4966813;28;20038;-67
2023/12/22 06:16:32;;;;;;;3.42;1.92;;;;;;;;;;4966643;28;20030;-69
2023/12/22 06:18:58;;;;;;;6.70;2.22;;;;;;;;;;4964213;28;20026;-68
2023/12/22 06:21:27;;;;;;;3.10;2.13;;;;;;;;;;4965630;28;20035;-67
2023/12/22 06:23:54;;;;;;;6.65;2.10;;;;;;;;;;4978886;28;20039;-68
2023/12/22 06:26:20;;;;;;;7.03;2.25;;;;;;;;;;4965070;28;20069;-68
2023/12/22 06:28:47;;;;;;;8.85;2.92;;;;;;;;;;4959956;28;20027;-68
2023/12/22 06:31:20;;;;;;;6.78;2.13;;;;;;;;;;4976864;28;20042;-68
2023/12/22 06:33:47;;;;;;;7.05;1.95;;;;;;;;;;4967055;28;20048;-68
2023/12/22 06:36:22;;;;;;;10.85;2.20;;;;;;;;;;4969698;28;20109;-68
2023/12/22 06:38:49;;;;;;;6.38;2.70;;;;;;;;;;4962688;28;20436;-67
2023/12/22 06:41:22;;;;;;;4.80;2.10;;;;;;;;;;4972785;28;20126;-67
2023/12/22 06:43:49;;;;;;;5.45;2.47;;;;;;;;;;4957879;28;20460;-68
2023/12/22 06:46:16;;;;;;;4.95;2.65;;;;;;;;;;4956803;28;20069;-68
2023/12/22 06:48:42;;;;;;;9.50;2.78;;;;;;;;;;4967980;28;20486;-68
2023/12/22 06:51:08;;;;;;;9.23;4.22;;;;;;;;;;4958735;28;20035;-68
2023/12/22 06:53:35;;;;;;;5.93;2.10;;;;;;;;;;4962000;28;20027;-68
2023/12/22 06:56:01;;;;;;;8.93;2.70;;;;;;;;;;4960845;28;20027;-69
2023/12/22 06:58:27;;;;;;;8.35;2.70;;;;;;;;;;4961384;28;20085;-68
2023/12/22 07:00:53;;;;;;;8.80;3.08;;;;;;;;;;4956739;28;20019;-68
2023/12/22 07:03:19;;;;;;;5.80;2.60;;;;;;;;;;4963325;28;20058;-69
2023/12/22 07:05:46;;;;;;;6.28;2.63;;;;;;;;;;4957171;28;20666;-68
2023/12/22 07:08:12;;;;;;;9.43;3.08;;;;;;;;;;4958228;28;20023;-68
2023/12/22 07:10:38;;;;;;;11.02;3.08;;;;;;;;;;4961803;28;20039;-68
2023/12/22 07:13:04;;;;;;;14.48;2.88;;;;;;;;;;4976142;28;20112;-68
2023/12/22 07:15:31;;;;;;;10.15;2.60;;;;;;;;;;4969429;28;20162;-68
2023/12/22 07:17:57;;;;;;;9.88;2.42;;;;;;;;;;4960387;28;20061;-68
2023/12/22 07:20:23;;;;;;;11.85;2.92;;;;;;;;;;4968521;28;20038;-68
2023/12/22 07:22:50;;;;;;;9.93;3.75;;;;;;;;;;4974881;28;20062;-69
2023/12/22 07:25:19;;;;;;;12.25;3.08;;;;;;;;;;4973729;28;20126;-69
2023/12/22 07:27:46;;;;;;;10.15;2.72;;;;;;;;;;4966734;28;20031;-69
2023/12/22 07:30:15;;;;;;;10.75;2.85;;;;;;;;;;4968195;28;20404;-68
2023/12/22 07:32:41;;;;;;;3.28;2.05;;;;;;;;;;4975873;28;20130;-69
2023/12/22 07:35:08;;;;;;;12.88;3.80;;;;;;;;;;4970226;28;20069;-66
2023/12/22 07:37:39;;;;;;;6.15;2.53;;;;;;;;;;4982422;28;20034;-69
2023/12/22 07:40:05;;;;;;;5.95;2.40;;;;;;;;;;4992238;28;20029;-68
2023/12/22 07:42:32;;;;;;;5.10;2.15;;;;;;;;;;5019070;28;20024;-68
2023/12/22 07:44:58;;;;;;;4.97;2.30;;;;;;;;;;5044284;28;20033;-69
2023/12/22 07:47:24;;;;;;;10.35;2.70;;;;;;;;;;5023839;28;20209;-69
2023/12/22 07:49:50;;;;;;;8.45;2.60;;;;;;;;;;5029328;28;20036;-69
2023/12/22 07:52:16;;;;;;;8.75;3.10;;;;;;;;;;5022197;28;20032;-70
2023/12/22 07:54:42;;;;;;;10.85;2.75;;;;;;;;;;4973408;28;20034;-69
2023/12/22 07:57:09;;;;;;;4.60;2.17;;;;;;;;;;5013539;28;20031;-69
2023/12/22 07:59:36;;;;;;;9.55;2.55;;;;;;;;;;5033686;28;20044;-69
2023/12/22 08:02:02;;;;;;;10.05;2.50;;;;;;;;;;5014770;28;20050;-69
2023/12/22 08:04:29;;;;;;;7.18;2.28;;;;;;;;;;5030335;28;20048;-69
2023/12/22 08:06:58;;;;;;;8.15;3.33;;;;;;;;;;4953700;28;20038;-69
2023/12/22 08:09:25;;;;;;;11.13;3.20;;;;;;;;;;5007180;28;20031;-73
2023/12/22 08:11:56;;;;;;;13.07;3.33;;;;;;;;;;5022761;28;20112;-71
2023/12/22 08:14:22;;;;;;;8.27;2.78;;;;;;;;;;4999184;28;20024;-71
2023/12/22 08:16:48;;;;;;;6.72;2.30;;;;;;;;;;5034921;28;20041;-71
2023/12/22 08:19:15;;;;;;;5.47;2.40;;;;;;;;;;5048316;28;20029;-69
2023/12/22 08:21:43;;;;;;;14.32;3.83;;;;;;;;;;5039898;28;20030;-70
2023/12/22 08:24:11;;;;;;;13.73;3.40;;;;;;;;;;4995993;28;20035;-71
2023/12/22 08:26:37;;;;;;;6.40;2.30;;;;;;;;;;5014944;28;20049;-71
2023/12/22 08:29:03;;;;;;;8.82;3.47;;;;;;;;;;4997345;28;20081;-70
2023/12/22 08:31:29;;;;;;;8.05;3.03;;;;;;;;;;5008783;28;20368;-71
2023/12/22 08:33:56;;;;;;;7.63;2.70;;;;;;;;;;5019123;28;20397;-70
2023/12/22 08:36:22;;;;;;;10.25;3.50;;;;;;;;;;5018326;28;20037;-72
2023/12/22 08:38:51;;;;;;;10.95;3.42;;;;;;;;;;5015398;28;20028;-72
2023/12/22 08:41:17;;;;;;;4.90;2.00;;;;;;;;;;5027607;28;20055;-72
2023/12/22 08:43:43;;;;;;;9.77;2.90;;;;;;;;;;5013352;28;20053;-71
2023/12/22 08:46:10;;;;;;;10.32;3.40;;;;;;;;;;5030686;28;20499;-71
2023/12/22 08:48:36;;;;;;;6.43;2.45;;;;;;;;;;5027971;28;20107;-71
2023/12/22 08:51:04;;;;;;;11.40;2.83;;;;;;;;;;5007054;28;21101;-71
2023/12/22 08:53:33;;;;;;;9.38;2.75;;;;;;;;;;4973021;28;20077;-71
2023/12/22 08:56:00;;;;;;;10.15;2.83;;;;;;;;;;4990749;28;20537;-71
2023/12/22 08:58:27;;;;;;;11.23;2.65;;;;;;;;;;4959301;28;20031;-71
2023/12/22 09:00:53;;;;;;;14.43;2.67;;;;;;;;;;4966418;28;20244;-71
2023/12/22 09:03:19;;;;;;;6.63;2.83;;;;;;;;;;4967138;28;20035;-71
2023/12/22 09:05:46;;;;;;;15.50;3.15;;;;;;;;;;4960052;28;20035;-70
2023/12/22 09:08:13;;;;;;;4.28;2.40;;;;;;;;;;4965336;28;20435;-71
2023/12/22 09:10:42;;;;;;;5.97;2.28;;;;;;;;;;4961070;28;20030;-75
2023/12/22 09:13:08;;;;;;;9.27;3.40;;;;;;;;;;4961034;28;20745;-70
2023/12/22 09:15:36;;;;;;;8.85;2.22;;;;;;;;;;4977228;28;20085;-70
2023/12/22 09:18:02;;;;;;;8.38;2.88;;;;;;;;;;4977774;28;20027;-70
2023/12/22 09:20:30;;;;;;;8.65;2.17;;;;;;;;;;4988854;28;20475;-70
2023/12/22 09:22:56;;;;;;;6.00;2.97;;;;;;;;;;4976429;28;20041;-70
2023/12/22 09:25:26;;;;;;;6.07;2.72;;;;;;;;;;4985279;28;20078;-70
2023/12/22 09:27:52;;;;;;;7.43;3.15;;;;;;;;;;4971269;28;20391;-69
2023/12/22 09:30:18;;;;;;;4.50;2.63;;;;;;;;;;4968824;28;20038;-70
2023/12/22 09:32:45;;;;;;;5.97;2.40;;;;;;;;;;4966293;28;20039;-71
2023/12/22 09:35:11;;;;;;;6.80;2.08;;;;;;;;;;4969625;28;20043;-71
2023/12/22 09:37:37;;;;;;;10.55;3.40;;;;;;;;;;4973081;28;20023;-71
2023/12/22 09:40:04;;;;;;;7.65;2.17;;;;;;;;;;4974154;28;20405;-70
2023/12/22 09:42:30;;;;;;;7.32;2.72;;;;;;;;;;4967291;28;20683;-73
2023/12/22 09:44:58;;;;;;;4.35;2.15;;;;;;;;;;4965274;28;20087;-71
2023/12/22 09:47:26;;;;;;;5.18;2.40;;;;;;;;;;4957658;28;20827;-70
2023/12/22 09:49:53;;;;;;;8.15;2.50;;;;;;;;;;4974514;28;20022;-72
2023/12/22 09:52:19;;;;;;;8.68;2.35;;;;;;;;;;5020398;28;20031;-71
2023/12/22 09:54:47;;;;;;;10.40;2.17;;;;;;;;;;4962877;28;20031;-71
2023/12/22 09:57:13;;;;;;;4.88;2.53;;;;;;;;;;4996023;28;20570;-71
2023/12/22 09:59:40;;;;;;;6.38;2.70;;;;;;;;;;5022828;28;20437;-71
2023/12/22 10:02:07;;;;;;;9.98;3.50;;;;;;;;;;5043377;28;20020;-71
2023/12/22 10:04:33;;;;;;;11.15;2.90;;;;;;;;;;5045355;28;20021;-72
2023/12/22 10:07:04;;;;;;;21.63;3.30;;;;;;;;;;5048201;28;20033;-70
2023/12/22 10:09:30;;;;;;;6.82;2.92;;;;;;;;;;5045399;28;20503;-73
2023/12/22 10:11:57;;;;;;;4.33;1.97;;;;;;;;;;5045751;28;20017;-69
2023/12/22 10:14:24;;;;;;;10.48;2.75;;;;;;;;;;5046010;28;20040;-71
2023/12/22 10:16:50;;;;;;;8.35;2.58;;;;;;;;;;5040949;28;20441;-70
2023/12/22 10:19:17;;;;;;;10.13;3.15;;;;;;;;;;5042469;28;20037;-71
2023/12/22 10:21:43;;;;;;;5.53;2.15;;;;;;;;;;5034292;28;20028;-70
2023/12/22 10:24:29;;;;;;;11.85;3.00;;;;;;;;;;5033498;28;20598;-70
2023/12/22 10:26:56;;;;;;;7.72;3.00;;;;;;;;;;5040911;28;20037;-70
2023/12/22 10:29:23;;;;;;;6.15;2.88;;;;;;;;;;5043391;28;20048;-70
2023/12/22 10:31:50;;;;;;;12.45;3.20;;;;;;;;;;5028863;28;20029;-73
2023/12/22 10:34:17;;;;;;;6.90;2.65;;;;;;;;;;5044692;28;20029;-70
2023/12/22 10:36:44;;;;;;;9.60;2.72;;;;;;;;;;5043049;28;20451;-70
2023/12/22 10:39:10;;;;;;;8.70;2.58;;;;;;;;;;5038987;28;20040;-71
2023/12/22 10:41:39;;;;;;;4.25;2.45;;;;;;;;;;5036331;28;20075;-72
2023/12/22 10:44:05;;;;;;;8.32;2.50;;;;;;;;;;5037411;28;20029;-70
2023/12/22 10:46:33;;;;;;;7.55;2.65;;;;;;;;;;5046251;28;20108;-71
2023/12/22 10:48:59;;;;;;;5.68;2.25;;;;;;;;;;5037414;28;20091;-73
2023/12/22 10:51:26;;;;;;;8.80;3.00;;;;;;;;;;5042888;28;20123;-74
2023/12/22 10:53:52;;;;;;;6.07;2.65;;;;;;;;;;5037796;28;20607;-70
2023/12/22 10:56:18;;;;;;;3.90;2.25;;;;;;;;;;5037070;28;20032;-70
2023/12/22 10:58:45;;;;;;;8.85;3.10;;;;;;;;;;5006916;28;20551;-70
2023/12/22 11:01:14;;;;;;;6.38;2.10;;;;;;;;;;4966776;28;20639;-71
2023/12/22 11:03:44;;;;;;;8.10;2.33;;;;;;;;;;5006737;28;20624;-71
2023/12/22 11:06:13;;;;;;;13.23;2.85;;;;;;;;;;4996360;28;20030;-71
2023/12/22 11:08:47;;;;;;;8.52;2.30;;;;;;;;;;5009907;28;20147;-71
2023/12/22 11:11:17;;;;;;;16.90;3.08;;;;;;;;;;4992192;28;20035;-75
2023/12/22 11:13:44;;;;;;;5.82;2.50;;;;;;;;;;5006775;28;20119;-70
2023/12/22 11:16:14;;;;;;;7.75;2.83;;;;;;;;;;5004485;28;20052;-71
2023/12/22 11:18:41;;;;;;;7.50;2.40;;;;;;;;;;4994033;28;20034;-69
2023/12/22 11:21:09;;;;;;;6.05;2.08;;;;;;;;;;5004935;28;20391;-70
2023/12/22 11:23:37;;;;;;;8.65;2.75;;;;;;;;;;5002074;28;20054;-71
2023/12/22 11:26:04;;;;;;;5.57;2.63;;;;;;;;;;5020589;28;20079;-70
2023/12/22 11:28:31;;;;;;;9.27;3.20;;;;;;;;;;4984697;28;20113;-71
2023/12/22 11:30:59;;;;;;;6.15;1.90;;;;;;;;;;5003376;28;20025;-70
2023/12/22 11:33:27;;;;;;;3.20;2.28;;;;;;;;;;4972968;28;20046;-69
2023/12/22 11:35:57;;;;;;;9.23;2.33;;;;;;;;;;4993755;28;20016;-71
2023/12/22 11:38:23;;;;;;;7.68;3.15;;;;;;;;;;4969631;28;20023;-71
2023/12/22 11:40:50;;;;;;;7.10;2.35;;;;;;;;;;4990415;28;20030;-71
2023/12/22 11:43:18;;;;;;;7.20;2.13;;;;;;;;;;5005183;28;20560;-70
2023/12/22 11:45:44;;;;;;;3.65;2.20;;;;;;;;;;4963598;28;20077;-70
2023/12/22 11:48:11;;;;;;;7.15;2.67;;;;;;;;;;4987377;28;20046;-71
2023/12/22 11:50:38;;;;;;;5.93;2.20;;;;;;;;;;4989133;28;21086;-72
2023/12/22 11:53:24;;;;;;;5.60;2.53;;;;;;;;;;4990884;28;20023;-71
2023/12/22 11:56:08;;;;;;;5.97;2.35;;;;;;;;;;5008811;28;20037;-71
2023/12/22 11:58:38;;;;;;;5.72;2.28;;;;;;;;;;4979518;28;20036;-69
2023/12/22 12:01:12;;;;;;;6.18;1.83;;;;;;;;;;4964862;28;20046;-71
2023/12/22 12:03:58;;;;;;;7.25;2.50;;;;;;;;;;5008079;28;20044;-72
2023/12/22 12:06:30;;;;;;;5.53;1.90;;;;;;;;;;5005454;28;20030;-69
2023/12/22 12:08:57;;;;;;;4.90;1.95;;;;;;;;;;5018295;28;20542;-70
2023/12/22 12:11:24;;;;;;;7.20;2.13;;;;;;;;;;4989500;28;20061;-70
2023/12/22 12:13:51;;;;;;;4.95;2.35;;;;;;;;;;4995797;28;20026;-71
2023/12/22 12:16:21;;;;;;;10.75;3.55;;;;;;;;;;4986190;28;20522;-69
2023/12/22 12:18:47;;;;;;;7.50;2.17;;;;;;;;;;4964065;28;20421;-71
2023/12/22 12:21:16;;;;;;;12.98;2.65;;;;;;;;;;4960156;28;20053;-72
2023/12/22 12:23:42;;;;;;;6.70;2.40;;;;;;;;;;4959731;28;20038;-71
2023/12/22 12:26:09;;;;;;;7.32;2.13;;;;;;;;;;4980346;28;20039;-70
2023/12/22 12:28:36;;;;;;;2.95;2.10;;;;;;;;;;4968333;28;20027;-70
2023/12/22 12:31:09;;;;;;;3.67;2.45;;;;;;;;;;4967440;28;20474;-70
2023/12/22 12:33:38;;;;;;;6.43;2.10;;;;;;;;;;4959172;28;20065;-71
2023/12/22 12:36:05;;;;;;;5.07;2.05;;;;;;;;;;4946528;28;20118;-71
2023/12/22 12:38:47;;;;;;;8.82;2.40;;;;;;;;;;4962245;28;20543;-71
2023/12/22 12:41:13;;;;;;;4.38;2.20;;;;;;;;;;4969249;28;20475;-71
2023/12/22 12:43:42;;;;;;;8.73;2.70;;;;;;;;;;4964964;28;20035;-70
2023/12/22 12:46:08;;;;;;;3.15;2.50;;;;;;;;;;4959953;28;20184;-70
2023/12/22 12:48:34;;;;;;;4.95;2.50;;;;;;;;;;4960001;28;20035;-70
2023/12/22 12:51:07;;;;;;;6.57;3.08;;;;;;;;;;4963927;28;20063;-70
2023/12/22 12:53:33;;;;;;;2.35;1.70;;;;;;;;;;4963338;28;20053;-71
2023/12/22 12:56:00;;;;;;;5.82;2.40;;;;;;;;;;4963096;28;20035;-73
2023/12/22 12:58:33;;;;;;;10.77;2.15;;;;;;;;;;4965867;28;20043;-70
2023/12/22 13:01:07;;;;;;;5.95;2.17;;;;;;;;;;4962605;28;20118;-70
2023/12/22 13:03:36;;;;;;;6.72;2.63;;;;;;;;;;4943417;28;20039;-70
2023/12/22 13:06:10;;;;;;;5.03;2.38;;;;;;;;;;4956402;28;20419;-70
2023/12/22 13:08:40;;;;;;;5.03;2.00;;;;;;;;;;4962869;28;20030;-70
2023/12/22 13:11:06;;;;;;;3.90;2.70;;;;;;;;;;4961164;28;20039;-70
2023/12/22 13:13:41;;;;;;;4.53;2.00;;;;;;;;;;4955782;28;20058;-70
2023/12/22 13:16:07;;;;;;;6.93;2.50;;;;;;;;;;4958670;28;20023;-71
2023/12/22 13:18:33;;;;;;;2.92;2.05;;;;;;;;;;4964514;28;20266;-70
2023/12/22 13:21:03;;;;;;;7.38;2.20;;;;;;;;;;4958883;28;20133;-69
2023/12/22 13:23:29;;;;;;;7.32;2.35;;;;;;;;;;4962525;28;20153;-70
2023/12/22 13:25:55;;;;;;;4.38;2.53;;;;;;;;;;4964240;28;20558;-70
2023/12/22 13:28:30;;;;;;;6.75;2.47;;;;;;;;;;4961132;28;20114;-69
2023/12/22 13:30:56;;;;;;;4.28;2.28;;;;;;;;;;4965081;28;20754;-70
2023/12/22 13:33:28;;;;;;;7.40;2.47;;;;;;;;;;4972826;28;20043;-70
2023/12/22 13:35:58;;;;;;;4.97;2.30;;;;;;;;;;4960526;28;20123;-70
2023/12/22 13:38:24;;;;;;;7.07;2.60;;;;;;;;;;4961520;28;20034;-70
2023/12/22 13:40:50;;;;;;;4.15;2.13;;;;;;;;;;4958663;28;20038;-71
2023/12/22 13:43:17;;;;;;;2.35;1.90;;;;;;;;;;4964937;28;20351;-71
2023/12/22 13:45:43;;;;;;;4.38;1.95;;;;;;;;;;4971792;28;20542;-71
2023/12/22 13:48:09;;;;;;;4.82;1.90;;;;;;;;;;4965770;28;20035;-71
2023/12/22 13:50:36;;;;;;;4.28;2.20;;;;;;;;;;4964281;28;20300;-71
2023/12/22 13:53:11;;;;;;;4.00;1.83;;;;;;;;;;4960341;28;20157;-70
2023/12/22 13:55:38;;;;;;;2.10;1.90;;;;;;;;;;4970270;28;20023;-70
2023/12/22 13:58:05;;;;;;;3.65;2.40;;;;;;;;;;4971534;28;20049;-71
2023/12/22 14:00:32;;;;;;;2.75;1.95;;;;;;;;;;4964098;28;20094;-70
2023/12/22 14:02:58;;;;;;;6.25;1.98;;;;;;;;;;4963549;28;20138;-71
2023/12/22 14:05:24;;;;;;;3.97;2.03;;;;;;;;;;4959979;28;20046;-71
2023/12/22 14:07:51;;;;;;;4.88;1.77;;;;;;;;;;4968122;28;20118;-70
2023/12/22 14:10:17;;;;;;;5.30;2.45;;;;;;;;;;4963699;28;20042;-70
2023/12/22 14:12:43;;;;;;;4.10;2.10;;;;;;;;;;4959911;28;20031;-70
2023/12/22 14:15:10;;;;;;;5.95;1.88;;;;;;;;;;4960345;28;20019;-70
2023/12/22 14:17:36;;;;;;;6.13;2.10;;;;;;;;;;4964483;28;20035;-70
2023/12/22 14:20:04;;;;;;;4.63;2.22;;;;;;;;;;4963053;28;20073;-70
2023/12/22 14:22:31;;;;;;;6.97;2.80;;;;;;;;;;4967587;28;20399;-71
2023/12/22 14:24:57;;;;;;;11.05;4.53;;;;;;;;;;4981324;28;20562;-70
2023/12/22 14:27:27;;;;;;;10.70;5.10;;;;;;;;;;4971542;28;20031;-70
2023/12/22 14:29:53;;;;;;;17.00;6.78;;;;;;;;;;4984465;28;20041;-70
2023/12/22 14:32:19;;;;;;;13.15;5.25;;;;;;;;;;4965724;28;20861;-70
2023/12/22 14:34:46;;;;;;;11.48;6.55;;;;;;;;;;5041607;28;20425;-70
2023/12/22 14:37:13;;;;;;;11.40;5.28;;;;;;;;;;4960228;28;20035;-70
2023/12/22 14:39:39;;;;;;;11.25;5.25;;;;;;;;;;4958371;28;20030;-69
2023/12/22 14:42:05;;;;;;;4.72;2.80;;;;;;;;;;4961515;28;20566;-71